»·PEaware :: DLH8813 KSNA-KSNA

DLH8813 :: KSNA-KSNA

FLIGHT INFORMATION

Flight Status: Arrived
Operator:
Lufthansa
More flights by this operator :: More flights under this callsign
Pilot: Jamil R. (13286)
Aircraft: AIRBUS A320
(A320)
More flights by this aircraft type
Origin: KSNA John Wayne-Orange Co
United States
Destination: KSNA John Wayne-Orange Co
United States
More flights between these airports :: More routes between these airports
Route: +SLI
File this flight plan on PilotEdge
Remarks: To practise some IFR flying a bigger ?traffic circuit?. Hope, will not have an issue with transponder on ground again.
Altitude:
(Current/Filed)
5,000ft
Speed:
(Current/Filed)
340kts
Departed: 13-Jan-18 05:38 PM
Arrived: 13-Jan-18 06:07 PM
Distance/Time
Traveled:
0nm/0:29
Distance/Time
To Go:
Arrived

Flight Plot

Page will automatically refresh every two minutes.


Map Options




Map Legend


Flown Route
Filed Route
Departure Airport
Arrival Airport
Navaid (VOR, NDB)
Fix

Horizontal Profiles

Position Reports

Time Latitude Longitude Heading Altitude Ground
Speed
13-Jan-18 16:29 33.675717 -117.864641 121 65ft 0kts
13-Jan-18 16:30 33.675717 -117.864641 121 65ft 0kts
13-Jan-18 16:31 33.675717 -117.864641 121 65ft 0kts
13-Jan-18 16:32 33.675717 -117.864641 121 65ft 0kts
13-Jan-18 16:33 33.675717 -117.864641 121 65ft 0kts
13-Jan-18 16:34 33.675717 -117.864641 121 65ft 0kts
13-Jan-18 16:35 33.675717 -117.864641 121 65ft 0kts
13-Jan-18 16:36 33.675717 -117.864641 121 65ft 0kts
13-Jan-18 16:37 33.675717 -117.864641 121 65ft 0kts
13-Jan-18 16:38 33.675717 -117.864641 121 65ft 0kts
13-Jan-18 16:39 33.675717 -117.864641 121 65ft 0kts
13-Jan-18 16:40 33.675717 -117.864641 121 65ft 0kts
13-Jan-18 16:41 33.675717 -117.864641 121 65ft 0kts
13-Jan-18 16:42 33.675717 -117.864641 121 65ft 0kts
13-Jan-18 16:43 33.675717 -117.864641 121 65ft 0kts
13-Jan-18 16:44 33.675717 -117.864641 121 65ft 0kts
13-Jan-18 16:45 33.675717 -117.864641 121 65ft 0kts
13-Jan-18 16:46 33.675717 -117.864641 121 65ft 0kts
13-Jan-18 16:47 33.675717 -117.864641 121 65ft 0kts
13-Jan-18 16:48 33.675717 -117.864641 121 65ft 0kts
13-Jan-18 16:49 33.675717 -117.864641 121 65ft 0kts
13-Jan-18 16:50 33.675717 -117.864641 121 65ft 0kts
13-Jan-18 16:51 33.675717 -117.864641 121 65ft 0kts
13-Jan-18 16:52 33.675717 -117.864641 121 65ft 0kts
13-Jan-18 16:53 33.675717 -117.864641 121 65ft 0kts
13-Jan-18 16:54 33.675717 -117.864641 121 65ft 0kts
13-Jan-18 16:55 33.675717 -117.864641 121 65ft 0kts
13-Jan-18 16:56 33.675717 -117.864641 121 65ft 0kts
13-Jan-18 16:57 33.675717 -117.864641 121 65ft 0kts
13-Jan-18 16:58 33.675717 -117.864641 121 65ft 0kts
13-Jan-18 16:59 33.675717 -117.864641 121 65ft 0kts
13-Jan-18 17:00 33.675717 -117.864641 121 65ft 0kts
13-Jan-18 17:01 33.675717 -117.864641 121 65ft 0kts
13-Jan-18 17:02 33.675717 -117.864641 121 65ft 0kts
13-Jan-18 17:03 33.675717 -117.864641 121 65ft 0kts
13-Jan-18 17:04 33.675717 -117.864641 121 65ft 0kts
13-Jan-18 17:05 33.675717 -117.864641 121 65ft 0kts
13-Jan-18 17:06 33.675717 -117.864641 121 65ft 0kts
13-Jan-18 17:07 33.675717 -117.864641 121 65ft 0kts
13-Jan-18 17:08 33.675717 -117.864641 121 65ft 0kts
13-Jan-18 17:09 33.675717 -117.864641 121 65ft 0kts
13-Jan-18 17:10 33.675717 -117.864641 121 65ft 0kts
13-Jan-18 17:11 33.675717 -117.864641 121 65ft 0kts
13-Jan-18 17:12 33.675717 -117.864641 121 65ft 0kts
13-Jan-18 17:13 33.675717 -117.864641 121 65ft 0kts
13-Jan-18 17:14 33.675717 -117.864641 121 65ft 0kts
13-Jan-18 17:15 33.675717 -117.864641 121 65ft 0kts
13-Jan-18 17:16 33.675717 -117.864641 121 65ft 0kts
13-Jan-18 17:17 33.675717 -117.864641 121 65ft 0kts
13-Jan-18 17:18 33.675717 -117.864641 121 65ft 0kts
13-Jan-18 17:19 33.675774 -117.864753 121 65ft 2kts
13-Jan-18 17:20 33.675812 -117.864827 121 65ft 0kts
13-Jan-18 17:21 33.675812 -117.864826 120 65ft 0kts
13-Jan-18 17:22 33.675784 -117.864769 119 65ft 0kts
13-Jan-18 17:23 33.675784 -117.864769 119 65ft 0kts
13-Jan-18 17:24 33.675784 -117.864769 119 65ft 0kts
13-Jan-18 17:25 33.675787 -117.864776 119 65ft 1kts
13-Jan-18 17:26 33.675796 -117.865377 48 65ft 2kts
13-Jan-18 17:27 33.675645 -117.865511 27 65ft 0kts
13-Jan-18 17:28 33.675645 -117.865511 27 65ft 0kts
13-Jan-18 17:29 33.675645 -117.865511 27 65ft 0kts
13-Jan-18 17:30 33.675817 -117.865404 27 65ft 3kts
13-Jan-18 17:31 33.678346 -117.863841 27 65ft 14kts
13-Jan-18 17:32 33.680654 -117.863048 294 65ft 0kts
13-Jan-18 17:33 33.680654 -117.863048 294 65ft 0kts
13-Jan-18 17:34 33.680654 -117.863048 294 65ft 0kts
13-Jan-18 17:35 33.681134 -117.864188 297 65ft 0kts
13-Jan-18 17:36 33.681134 -117.864188 297 65ft 0kts
13-Jan-18 17:37 33.681134 -117.864188 297 65ft 0kts
13-Jan-18 17:38 33.681134 -117.864188 297 65ft 0kts
13-Jan-18 17:39 33.681134 -117.864188 297 65ft 0kts
13-Jan-18 17:40 33.681134 -117.864188 297 65ft 0kts
13-Jan-18 17:41 33.681134 -117.864188 297 65ft 0kts
13-Jan-18 17:42 33.681134 -117.864188 297 65ft 0kts
13-Jan-18 17:43 33.681383 -117.865068 253 65ft 9kts
13-Jan-18 17:44 33.655801 -117.881873 208 1267ft 186kts
13-Jan-18 17:45 33.601732 -117.896626 187 3962ft 211kts
13-Jan-18 17:46 33.543423 -117.904807 187 4006ft 212kts
13-Jan-18 17:47 33.490329 -117.890817 112 4024ft 219kts
13-Jan-18 17:48 33.523143 -117.840185 22 4041ft 221kts
13-Jan-18 17:49 33.579836 -117.811667 22 4044ft 221kts
13-Jan-18 17:50 33.637346 -117.782645 22 4101ft 229kts
13-Jan-18 17:51 33.696020 -117.755284 22 4093ft 224kts
13-Jan-18 17:52 33.753513 -117.730422 22 4093ft 216kts
13-Jan-18 17:53 33.809079 -117.706351 22 4082ft 211kts
13-Jan-18 17:54 33.864618 -117.682591 22 4064ft 213kts
13-Jan-18 17:55 33.904066 -117.718274 254 4043ft 229kts
13-Jan-18 17:56 33.863446 -117.771324 194 4057ft 220kts
13-Jan-18 17:57 33.805049 -117.793301 194 4068ft 220kts
13-Jan-18 17:58 33.748627 -117.820301 212 4024ft 217kts
13-Jan-18 17:59 33.738657 -117.888553 272 4034ft 218kts
13-Jan-18 18:00 33.742890 -117.960638 272 4030ft 208kts
13-Jan-18 18:01 33.766135 -118.012300 1 4024ft 206kts
13-Jan-18 18:02 33.811576 -117.974266 43 4029ft 201kts
13-Jan-18 18:03 33.853502 -117.930016 42 4033ft 198kts
13-Jan-18 18:04 33.891443 -117.883780 52 4032ft 192kts
13-Jan-18 18:05 33.924318 -117.833578 59 4030ft 191kts
13-Jan-18 18:06 33.913533 -117.774371 112 4062ft 185kts
13-Jan-18 18:07 33.877832 -117.736996 180 4052ft 196kts
13-Jan-18 18:08 33.827949 -117.764865 212 3977ft 205kts
13-Jan-18 18:09 33.779619 -117.803698 208 2810ft 205kts
13-Jan-18 18:10 33.738588 -117.828638 206 2258ft 153kts
13-Jan-18 18:11 33.702011 -117.852363 207 710ft 147kts
13-Jan-18 18:12 33.672481 -117.870890 210 65ft 63kts
13-Jan-18 18:13 33.669282 -117.871813 138 65ft 0kts
13-Jan-18 18:14 33.669241 -117.871750 125 65ft 0kts
13-Jan-18 18:15 33.669241 -117.871750 125 65ft 0kts
13-Jan-18 18:16 33.669241 -117.871750 125 65ft 0kts
13-Jan-18 18:17 33.669241 -117.871750 125 65ft 0kts
13-Jan-18 18:18 33.669241 -117.871750 125 65ft 0kts
13-Jan-18 18:19 33.669241 -117.871750 125 65ft 0kts
13-Jan-18 18:20 33.669090 -117.871437 112 65ft 8kts
13-Jan-18 18:21 33.672418 -117.867927 29 65ft 23kts
13-Jan-18 18:22 33.675440 -117.865681 26 65ft 8kts
13-Jan-18 18:23 33.676540 -117.864320 120 65ft 1kts
13-Jan-18 18:24 33.676475 -117.864184 119 65ft 0kts
13-Jan-18 18:25 33.676475 -117.864184 119 65ft 0kts
13-Jan-18 18:26 33.676475 -117.864184 119 65ft 0kts
13-Jan-18 18:27 33.676475 -117.864184 119 65ft 0kts

Navigation Log

Ident Type
1. KSNA Airport
2. SLI Navaid
3. KSNA Airport